createdAt,value
2023-03-30T00:07:13.403Z,11.31
2023-03-30T00:17:16.038Z,11.55
2023-03-30T00:27:18.093Z,11.20
2023-03-30T00:37:20.799Z,11.09
2023-03-30T00:47:23.014Z,11.57
2023-03-30T00:57:26.978Z,11.88
2023-03-30T01:07:29.887Z,11.62
2023-03-30T01:17:39.363Z,11.89
2023-03-30T01:28:04.697Z,11.33
2023-03-30T01:38:37.903Z,11.50
2023-03-30T01:49:11.062Z,11.67
2023-03-30T01:59:20.331Z,12.37
2023-03-30T02:09:23.987Z,11.63
2023-03-30T02:19:28.405Z,11.68
2023-03-30T02:29:32.332Z,12.13
2023-03-30T02:39:43.155Z,12.01
2023-03-30T02:50:00.374Z,12.38
2023-03-30T03:00:13.069Z,12.12
2023-03-30T03:10:15.873Z,12.86
2023-03-30T03:20:18.809Z,12.10
2023-03-30T03:30:21.198Z,11.77
2023-03-30T03:40:34.453Z,12.47
2023-03-30T03:50:37.018Z,11.98
2023-03-30T04:00:40.262Z,13.02
2023-03-30T04:10:42.750Z,12.42
2023-03-30T04:21:13.355Z,12.92
2023-03-30T04:31:18.588Z,12.73
2023-03-30T04:41:41.775Z,12.80
2023-03-30T04:51:58.987Z,13.19
2023-03-30T05:02:16.253Z,13.42
2023-03-30T05:12:38.890Z,13.94
2023-03-30T05:23:07.175Z,13.13
2023-03-30T05:33:27.397Z,12.24
2023-03-30T05:43:52.376Z,12.07
2023-03-30T05:54:12.188Z,12.47
2023-03-30T06:04:35.823Z,12.37
2023-03-30T06:14:38.544Z,12.22
2023-03-30T06:24:59.539Z,11.97
2023-03-30T06:35:03.934Z,12.13
2023-03-30T06:45:07.369Z,12.27
2023-03-30T06:55:10.474Z,12.22
2023-03-30T07:05:15.933Z,12.37
2023-03-30T07:15:28.431Z,13.18
2023-03-30T07:25:32.765Z,12.98
2023-03-30T07:35:45.620Z,12.75
2023-03-30T07:45:50.122Z,11.57
2023-03-30T07:56:06.053Z,12.71
2023-03-30T08:06:17.526Z,12.03
2023-03-30T08:16:23.272Z,12.33
2023-03-30T08:26:26.641Z,12.27
2023-03-30T08:36:28.733Z,12.79
2023-03-30T08:46:31.362Z,11.23
2023-03-30T08:56:53.895Z,12.36
2023-03-30T09:07:26.515Z,12.52
2023-03-30T09:17:41.571Z,12.93
2023-03-30T09:28:22.401Z,11.91
2023-03-30T09:38:24.500Z,12.77
2023-03-30T09:48:26.832Z,12.54
2023-03-30T09:58:31.925Z,12.51
2023-03-30T10:08:49.539Z,12.37
2023-03-30T10:19:14.917Z,11.95
2023-03-30T10:29:18.440Z,11.08
2023-03-30T10:39:33.460Z,9.91
2023-03-30T10:50:11.205Z,10.06
2023-03-30T11:00:33.209Z,11.02
2023-03-30T11:10:42.826Z,10.63
2023-03-30T11:20:52.960Z,12.83
2023-03-30T11:30:56.774Z,12.46
2023-03-30T11:41:07.498Z,11.10
2023-03-30T11:51:09.525Z,11.93
2023-03-30T12:01:31.940Z,11.65
2023-03-30T12:11:56.482Z,12.66
2023-03-30T12:22:21.409Z,12.14
2023-03-30T12:32:30.606Z,11.40
2023-03-30T12:42:34.635Z,10.93
2023-03-30T12:53:04.315Z,11.20
2023-03-30T13:03:37.540Z,10.92
2023-03-30T13:13:50.940Z,10.52
2023-03-30T13:24:23.606Z,10.69
2023-03-30T13:34:37.776Z,9.99
2023-03-30T13:44:51.648Z,10.24
2023-03-30T13:54:53.943Z,11.31
2023-03-30T14:05:21.529Z,11.09
2023-03-30T14:15:27.974Z,11.80
2023-03-30T14:25:35.520Z,12.49
2023-03-30T14:35:42.148Z,12.42
2023-03-30T14:45:44.720Z,12.70
2023-03-30T14:55:47.540Z,11.98
2023-03-30T15:05:50.505Z,12.26
2023-03-30T15:15:54.530Z,10.69
2023-03-30T15:26:29.664Z,11.69
2023-03-30T15:36:41.500Z,11.41
2023-03-30T15:46:44.185Z,11.69
2023-03-30T15:56:52.599Z,11.35
2023-03-30T16:07:03.667Z,11.32
2023-03-30T16:17:06.004Z,10.91
2023-03-30T16:27:10.900Z,11.02
2023-03-30T16:37:13.163Z,11.41
2023-03-30T16:47:15.627Z,11.36
2023-03-30T16:57:18.808Z,11.79
2023-03-30T17:07:21.038Z,11.28
2023-03-30T17:17:23.164Z,11.30
2023-03-30T17:27:25.868Z,11.66
2023-03-30T17:37:28.000Z,10.60
2023-03-30T17:47:30.359Z,11.17
2023-03-30T17:57:33.078Z,10.79
2023-03-30T18:07:35.606Z,10.64
2023-03-30T18:17:37.937Z,10.38
2023-03-30T18:27:42.355Z,10.32
2023-03-30T18:37:46.005Z,10.23
2023-03-30T18:47:48.306Z,10.45
2023-03-30T18:57:50.597Z,10.80
2023-03-30T19:07:56.196Z,10.06
2023-03-30T19:17:58.736Z,10.38
2023-03-30T19:28:03.274Z,10.40
2023-03-30T19:38:06.413Z,10.95
2023-03-30T19:48:17.158Z,10.75
2023-03-30T19:58:19.230Z,10.69
2023-03-30T20:08:24.352Z,10.13
2023-03-30T20:18:30.874Z,10.83
2023-03-30T20:28:32.962Z,10.19
2023-03-30T20:38:35.583Z,10.68
2023-03-30T20:48:39.128Z,10.50
2023-03-30T20:58:41.378Z,10.04
2023-03-30T21:08:43.621Z,10.39
2023-03-30T21:18:45.952Z,9.85
2023-03-30T21:28:48.399Z,9.54
2023-03-30T21:38:50.704Z,9.81
2023-03-30T21:48:53.966Z,10.02
2023-03-30T21:58:56.584Z,9.81
2023-03-30T22:08:58.667Z,9.52
2023-03-30T22:19:01.376Z,9.53
2023-03-30T22:29:04.457Z,9.74
2023-03-30T22:39:06.867Z,9.72
2023-03-30T22:49:09.626Z,9.13
2023-03-30T22:59:11.708Z,9.06
2023-03-30T23:09:14.509Z,9.59
2023-03-30T23:19:16.613Z,9.79
2023-03-30T23:29:19.914Z,10.09
2023-03-30T23:39:25.879Z,10.02
2023-03-30T23:49:28.494Z,9.40
2023-03-30T23:59:30.713Z,9.68
